Time;durP1;ratioP1;P1;durP2;ratioP2;P2;SDS_P1;SDS_P2;PMS_P1;PMS_P2;Temp;Humidity;BMP_temperature;BMP_pressure;BME280_temperature;BME280_humidity;BME280_pressure;Samples;Min_cycle;Max_cycle;Signal;HPM_P1;HPM_P2
2022/01/13 00:02:19;;;;;;;59.85;20.23;;;4.20;98.70;;;;;;5156517;27;20038;-81
2022/01/13 00:04:46;;;;;;;72.15;21.30;;;4.20;98.70;;;;;;5141958;27;20041;-79
2022/01/13 00:07:12;;;;;;;66.95;21.40;;;4.20;98.70;;;;;;5160661;27;20038;-78
2022/01/13 00:09:38;;;;;;;54.22;20.25;;;4.20;98.80;;;;;;5161137;27;20378;-80
2022/01/13 00:12:06;;;;;;;57.08;21.40;;;4.20;98.80;;;;;;5160845;27;20541;-80
2022/01/13 00:24:41;;;;;;;68.75;21.58;;;4.40;98.70;;;;;;5160410;27;20053;-80
2022/01/13 00:27:11;;;;;;;58.70;22.17;;;4.40;98.70;;;;;;5160377;27;20507;-80
2022/01/13 00:29:40;;;;;;;62.67;22.13;;;4.40;98.60;;;;;;5143077;27;20038;-80
2022/01/13 00:32:07;;;;;;;73.38;25.63;;;4.30;98.70;;;;;;5160182;27;20054;-79
2022/01/13 00:34:33;;;;;;;63.05;20.88;;;4.30;98.70;;;;;;5143029;27;20046;-79
2022/01/13 00:36:59;;;;;;;68.15;25.48;;;4.30;98.70;;;;;;5160223;27;20069;-80
2022/01/13 00:39:24;;;;;;;97.80;40.35;;;4.30;98.70;;;;;;5126253;27;20086;-80
2022/01/13 00:41:51;;;;;;;72.28;25.70;;;4.30;98.70;;;;;;5142883;27;20394;-80
2022/01/13 00:44:20;;;;;;;68.47;23.98;;;4.30;98.60;;;;;;5143098;27;20064;-80
2022/01/13 00:46:48;;;;;;;72.57;26.38;;;4.30;98.70;;;;;;5159955;27;20557;-80
2022/01/13 00:49:14;;;;;;;65.80;23.67;;;4.30;98.70;;;;;;5126161;27;20078;-81
2022/01/13 00:51:41;;;;;;;55.05;21.52;;;4.30;98.70;;;;;;5142997;27;20042;-80
2022/01/13 00:54:08;;;;;;;67.07;23.75;;;4.30;98.70;;;;;;5160255;27;20139;-80
2022/01/13 00:56:35;;;;;;;50.15;21.83;;;4.50;98.70;;;;;;5159895;27;20035;-79
2022/01/13 00:59:07;;;;;;;60.88;21.95;;;4.40;98.70;;;;;;5160146;27;20070;-80
2022/01/13 01:01:37;;;;;;;55.17;21.85;;;4.50;98.80;;;;;;5159882;27;20490;-79
2022/01/13 01:04:04;;;;;;;65.47;24.13;;;4.50;98.80;;;;;;5142504;27;20038;-80
2022/01/13 01:06:30;;;;;;;69.50;23.10;;;4.50;98.80;;;;;;5142276;27;20038;-80
2022/01/13 01:08:57;;;;;;;53.65;22.75;;;4.50;98.80;;;;;;5159738;27;20042;-80
2022/01/13 01:11:25;;;;;;;59.83;23.27;;;4.60;98.80;;;;;;5160775;27;20081;-81
2022/01/13 01:13:52;;;;;;;59.45;23.60;;;4.60;98.70;;;;;;5159990;27;20398;-80
2022/01/13 01:16:18;;;;;;;56.58;22.60;;;4.60;98.80;;;;;;5158594;27;20046;-79
2022/01/13 01:26:30;;;;;;;50.60;20.25;;;4.60;98.70;;;;;;5159432;27;20038;-78
2022/01/13 01:29:19;;;;;;;55.45;22.20;;;4.60;98.80;;;;;;5159600;27;20042;-79
2022/01/13 01:31:51;;;;;;;47.67;20.23;;;4.60;98.70;;;;;;5158935;27;20152;-80
2022/01/13 01:36:57;;;;;;;63.63;23.27;;;4.50;98.80;;;;;;5159013;27;20446;-80
2022/01/13 01:39:24;;;;;;;64.85;22.65;;;4.40;98.80;;;;;;5141877;27;20413;-80
2022/01/13 01:41:53;;;;;;;58.70;21.48;;;4.40;98.80;;;;;;5141813;27;20034;-80
2022/01/13 01:44:38;;;;;;;104.07;25.33;;;4.30;98.80;;;;;;5158936;27;20067;-78
2022/01/13 01:47:04;;;;;;;91.07;20.95;;;4.20;98.70;;;;;;5159366;27;20046;-79
2022/01/13 01:49:38;;;;;;;82.95;22.98;;;4.30;98.70;;;;;;5159135;27;20043;-79
2022/01/13 01:52:03;;;;;;;166.45;27.80;;;4.20;98.70;;;;;;5159041;27;20042;-79
2022/01/13 01:54:29;;;;;;;106.13;20.92;;;4.10;98.70;;;;;;5159154;27;20046;-79
2022/01/13 01:56:56;;;;;;;148.35;25.83;;;4.10;98.70;;;;;;5159253;27;20075;-80
2022/01/13 01:59:27;;;;;;;89.90;19.73;;;4.00;98.80;;;;;;5159171;27;20045;-80
2022/01/13 02:01:53;;;;;;;155.88;23.77;;;4.00;98.80;;;;;;5158882;27;20486;-79
2022/01/13 02:04:20;;;;;;;176.48;24.52;;;3.90;98.90;;;;;;5159209;27;20172;-80
2022/01/13 02:06:46;;;;;;;118.43;19.63;;;4.00;98.80;;;;;;5158602;27;20042;-80
2022/01/13 02:09:16;;;;;;;169.60;24.95;;;3.80;98.90;;;;;;5141269;27;20042;-80
2022/01/13 02:11:43;;;;;;;145.20;23.38;;;3.90;98.80;;;;;;5158617;27;20129;-79
2022/01/13 02:16:55;;;;;;;202.45;31.05;;;3.80;98.90;;;;;;5158462;27;20046;-78
2022/01/13 02:19:24;;;;;;;145.15;26.75;;;3.80;99.00;;;;;;5141289;27;20377;-78
2022/01/13 02:21:50;;;;;;;118.72;22.40;;;3.90;99.00;;;;;;5141044;27;20071;-79
2022/01/13 02:24:16;;;;;;;164.35;26.92;;;3.90;99.10;;;;;;5141540;27;20038;-79
2022/01/13 02:26:42;;;;;;;126.88;25.50;;;3.90;98.90;;;;;;5106930;27;20041;-80
2022/01/13 02:29:07;;;;;;;132.77;24.08;;;3.90;99.00;;;;;;5141056;27;20103;-78
2022/01/13 02:31:33;;;;;;;151.23;28.48;;;3.90;99.00;;;;;;5158057;27;20046;-79
2022/01/13 02:33:59;;;;;;;120.65;25.20;;;3.90;98.90;;;;;;5140604;27;20050;-80
2022/01/13 02:36:27;;;;;;;169.18;26.92;;;3.90;99.00;;;;;;5140821;27;20031;-79
2022/01/13 02:38:54;;;;;;;245.35;33.65;;;3.90;98.90;;;;;;5158037;27;20038;-79
2022/01/13 02:41:24;;;;;;;228.00;30.23;;;3.90;99.10;;;;;;5141151;27;20390;-80
2022/01/13 02:43:58;;;;;;;119.15;24.23;;;3.90;99.30;;;;;;5141606;27;20042;-79
2022/01/13 02:49:08;;;;;;;172.25;30.08;;;3.90;99.30;;;;;;5158297;27;20046;-80
2022/01/13 02:51:35;;;;;;;252.52;34.53;;;4.00;99.40;;;;;;5158036;27;20049;-80
2022/01/13 02:54:01;;;;;;;185.43;32.47;;;4.00;99.30;;;;;;5157806;27;20030;-80
2022/01/13 02:56:27;;;;;;;159.55;31.65;;;4.10;99.40;;;;;;5157798;27;20045;-80
2022/01/13 02:58:53;;;;;;;142.45;29.65;;;4.00;99.40;;;;;;5123315;27;20035;-79
2022/01/13 03:01:19;;;;;;;94.18;24.90;;;4.10;99.40;;;;;;5140610;27;20046;-79
2022/01/13 03:03:46;;;;;;;165.02;32.85;;;4.10;99.20;;;;;;5157858;27;20038;-80
2022/01/13 03:06:14;;;;;;;184.18;34.47;;;4.20;99.10;;;;;;5140117;27;20038;-77
2022/01/13 03:08:46;;;;;;;179.10;35.13;;;4.10;99.10;;;;;;5157317;27;20037;-80
2022/01/13 03:11:13;;;;;;;165.85;31.73;;;4.20;99.20;;;;;;5157611;27;20037;-79
2022/01/13 03:13:39;;;;;;;206.63;33.70;;;4.20;99.10;;;;;;5156345;27;20102;-80
2022/01/13 03:16:15;;;;;;;166.50;32.80;;;4.30;99.00;;;;;;5139876;27;20042;-79
2022/01/13 03:18:41;;;;;;;171.05;34.55;;;4.30;99.00;;;;;;5157562;27;20030;-79
2022/01/13 03:21:07;;;;;;;224.70;35.42;;;4.30;99.00;;;;;;5139824;27;20031;-80
2022/01/13 03:23:35;;;;;;;226.13;41.53;;;4.30;99.10;;;;;;5157139;27;20040;-80
2022/01/13 03:26:00;;;;;;;131.70;29.98;;;4.30;99.10;;;;;;5139797;27;20042;-82
2022/01/13 03:28:31;;;;;;;166.90;35.28;;;4.40;99.10;;;;;;5140006;27;20038;-80
2022/01/13 03:31:01;;;;;;;191.48;34.83;;;4.40;99.00;;;;;;5157278;27;20038;-79
2022/01/13 03:33:27;;;;;;;193.85;38.70;;;4.40;99.20;;;;;;5136218;27;20515;-80
2022/01/13 03:35:53;;;;;;;168.95;34.20;;;4.40;99.10;;;;;;5152604;27;20043;-79
2022/01/13 03:38:19;;;;;;;189.38;35.92;;;4.40;99.10;;;;;;5153760;27;20153;-80
2022/01/13 03:40:45;;;;;;;184.95;33.58;;;4.40;99.20;;;;;;5139603;27;20529;-80
2022/01/13 03:43:11;;;;;;;174.85;34.25;;;4.40;99.20;;;;;;5157495;27;20558;-80
2022/01/13 03:45:37;;;;;;;233.90;37.03;;;4.40;99.10;;;;;;5157554;27;20038;-78
2022/01/13 03:48:06;;;;;;;150.05;30.95;;;4.50;99.10;;;;;;5158441;27;20034;-82
2022/01/13 03:50:32;;;;;;;192.23;34.03;;;4.40;99.00;;;;;;5157890;27;20043;-79
2022/01/13 03:53:03;;;;;;;152.63;31.33;;;4.40;99.00;;;;;;5158111;27;20042;-81
2022/01/13 03:55:40;;;;;;;132.52;27.00;;;4.40;99.10;;;;;;5140687;27;20375;-80
2022/01/13 03:58:15;;;;;;;120.95;26.40;;;4.40;99.10;;;;;;5158408;27;20555;-78
2022/01/13 04:00:59;;;;;;;;;;;4.50;99.10;;;;;;5158210;27;20038;-81
2022/01/13 04:03:25;;;;;;;112.32;26.45;;;4.40;99.20;;;;;;5157689;27;20402;-80
2022/01/13 04:06:29;;;;;;;231.60;35.03;;;4.40;99.20;;;;;;5157500;27;20073;-81
2022/01/13 04:08:55;;;;;;;228.23;38.42;;;4.40;99.30;;;;;;5157369;27;20046;-80
2022/01/13 04:11:29;;;;;;;186.57;35.67;;;4.40;99.30;;;;;;5140560;27;20035;-81
2022/01/13 04:13:57;;;;;;;264.58;40.95;;;4.50;99.20;;;;;;5157587;27;20046;-80
2022/01/13 04:16:27;;;;;;;204.73;35.58;;;4.50;99.10;;;;;;5140131;27;20046;-80
2022/01/13 04:18:57;;;;;;;148.57;26.42;;;4.50;99.20;;;;;;5140603;27;20037;-80
2022/01/13 04:21:23;;;;;;;240.95;38.58;;;4.50;99.20;;;;;;5139788;27;20045;-80
2022/01/13 04:23:49;;;;;;;254.43;34.25;;;4.50;99.30;;;;;;5156767;27;20035;-79
2022/01/13 04:26:19;;;;;;;205.15;32.25;;;4.40;99.30;;;;;;5139813;27;20149;-80
2022/01/13 04:28:46;;;;;;;171.77;32.95;;;4.50;99.20;;;;;;5140776;27;20068;-81
2022/01/13 04:31:12;;;;;;;159.30;33.15;;;4.50;99.30;;;;;;5139689;27;20133;-79
2022/01/13 04:33:38;;;;;;;179.10;35.38;;;4.50;99.30;;;;;;5157064;27;20090;-80
2022/01/13 04:36:06;;;;;;;121.60;30.67;;;4.50;99.30;;;;;;5139682;27;20406;-81
2022/01/13 04:38:32;;;;;;;204.18;40.70;;;4.50;99.30;;;;;;5157174;27;20041;-79
2022/01/13 04:41:00;;;;;;;164.35;34.90;;;4.60;99.30;;;;;;5157230;27;20121;-79
2022/01/13 04:43:30;;;;;;;163.63;36.83;;;4.60;99.20;;;;;;5123206;27;20051;-81
2022/01/13 04:45:56;;;;;;;143.75;36.05;;;4.60;99.20;;;;;;5156750;27;20038;-79
2022/01/13 04:48:22;;;;;;;133.95;33.63;;;4.70;99.20;;;;;;5139804;27;20061;-79
2022/01/13 04:50:48;;;;;;;136.02;34.67;;;4.70;99.30;;;;;;5138192;27;20386;-80
2022/01/13 04:53:14;;;;;;;131.05;34.40;;;4.80;99.40;;;;;;5156702;27;20039;-80
2022/01/13 04:55:49;;;;;;;153.65;39.17;;;4.80;99.40;;;;;;5156496;27;20080;-79
2022/01/13 04:58:15;;;;;;;149.98;38.33;;;4.90;99.40;;;;;;5156539;27;20099;-81
2022/01/13 05:00:41;;;;;;;149.32;37.25;;;4.90;99.40;;;;;;5156537;27;20398;-79
2022/01/13 05:03:07;;;;;;;126.40;34.10;;;5.00;99.30;;;;;;5156739;27;20042;-80
2022/01/13 05:05:32;;;;;;;137.48;35.10;;;5.00;99.30;;;;;;5139494;27;20359;-80
2022/01/13 05:07:58;;;;;;;130.27;32.85;;;5.00;99.40;;;;;;5121924;27;20038;-80
2022/01/13 05:10:24;;;;;;;137.00;35.65;;;5.00;99.30;;;;;;5156170;27;20171;-81
2022/01/13 05:12:54;;;;;;;156.60;38.10;;;5.10;99.30;;;;;;5156315;27;20530;-79
2022/01/13 05:15:24;;;;;;;167.98;38.33;;;5.10;99.40;;;;;;5122615;27;20046;-79
2022/01/13 05:20:20;;;;;;;139.27;37.03;;;5.10;99.20;;;;;;5156437;27;20111;-81
2022/01/13 05:22:48;;;;;;;155.50;38.80;;;5.10;99.20;;;;;;5139447;27;20038;-80
2022/01/13 05:25:17;;;;;;;150.80;36.60;;;5.10;99.40;;;;;;5138699;27;20122;-80
2022/01/13 05:27:45;;;;;;;124.85;35.97;;;5.10;99.40;;;;;;5138817;27;20047;-81
2022/01/13 05:30:11;;;;;;;120.03;36.08;;;5.10;99.40;;;;;;5155890;27;20046;-80
2022/01/13 05:32:37;;;;;;;153.13;37.78;;;5.10;99.40;;;;;;5138725;27;20062;-80
2022/01/13 05:35:04;;;;;;;114.47;35.53;;;5.10;99.30;;;;;;5138660;27;20087;-81
2022/01/13 05:37:30;;;;;;;130.30;37.33;;;5.20;99.40;;;;;;5155915;27;20034;-80
2022/01/13 05:39:57;;;;;;;119.03;35.85;;;5.20;99.40;;;;;;5155816;27;20470;-79
2022/01/13 05:42:23;;;;;;;102.60;34.88;;;5.30;99.40;;;;;;5155635;27;20041;-79
2022/01/13 05:44:49;;;;;;;95.13;34.92;;;5.20;99.40;;;;;;5138288;27;20039;-78
2022/01/13 05:47:15;;;;;;;114.90;36.97;;;5.30;99.40;;;;;;5138807;27;20039;-79
2022/01/13 05:49:42;;;;;;;94.30;34.33;;;5.30;99.30;;;;;;5138604;27;20039;-82
2022/01/13 05:52:10;;;;;;;106.35;36.20;;;5.30;99.40;;;;;;5155671;27;20043;-80
2022/01/13 05:54:36;;;;;;;98.95;35.90;;;5.40;99.40;;;;;;5138642;27;20169;-80
2022/01/13 05:57:03;;;;;;;111.35;38.00;;;5.40;99.40;;;;;;5155552;27;20039;-79
2022/01/13 05:59:29;;;;;;;102.68;36.63;;;5.40;99.40;;;;;;5138570;27;20035;-83
2022/01/13 06:01:54;;;;;;;112.70;37.47;;;5.50;99.40;;;;;;5155257;27;20386;-80
2022/01/13 06:04:20;;;;;;;114.90;37.80;;;5.50;99.40;;;;;;5138286;27;20045;-80
2022/01/13 06:06:46;;;;;;;105.93;36.25;;;5.50;99.40;;;;;;5120818;27;20125;-79
2022/01/13 06:09:12;;;;;;;104.90;38.15;;;5.60;99.40;;;;;;5138145;27;20078;-81
2022/01/13 06:11:40;;;;;;;94.47;37.67;;;5.60;99.40;;;;;;5119798;27;20031;-78
2022/01/13 06:14:07;;;;;;;82.95;35.50;;;5.60;99.40;;;;;;5136532;27;20034;-81
2022/01/13 06:16:33;;;;;;;91.68;36.58;;;5.60;99.40;;;;;;5154562;27;20061;-81
2022/01/13 06:18:59;;;;;;;106.68;40.03;;;5.60;99.40;;;;;;5154173;27;20046;-80
2022/01/13 06:21:25;;;;;;;99.30;39.15;;;5.60;99.40;;;;;;5137699;27;20058;-80
2022/01/13 06:23:50;;;;;;;116.32;41.00;;;5.70;99.40;;;;;;5154936;27;20478;-80
2022/01/13 06:26:16;;;;;;;105.97;40.65;;;5.70;99.50;;;;;;5154745;27;20034;-79
2022/01/13 06:28:42;;;;;;;107.32;41.58;;;5.70;99.50;;;;;;5099626;27;20039;-78
2022/01/13 06:31:08;;;;;;;95.53;38.53;;;5.70;99.50;;;;;;5117582;27;20047;-79
2022/01/13 06:33:34;;;;;;;86.00;35.40;;;5.80;99.40;;;;;;5116767;27;20123;-79
2022/01/13 06:36:04;;;;;;;88.15;34.78;;;5.90;99.40;;;;;;5133934;27;20047;-80
2022/01/13 06:38:31;;;;;;;103.55;38.42;;;5.90;99.40;;;;;;5133969;27;20042;-81
2022/01/13 06:40:57;;;;;;;95.15;37.10;;;5.90;99.30;;;;;;5116730;27;20046;-80
2022/01/13 06:43:23;;;;;;;91.78;39.05;;;5.90;99.40;;;;;;5133801;27;20035;-79
2022/01/13 06:45:49;;;;;;;94.00;38.47;;;6.00;99.40;;;;;;5133994;27;20382;-79
2022/01/13 06:48:15;;;;;;;70.03;27.80;;;6.00;99.40;;;;;;5133682;27;20403;-80
2022/01/13 06:50:40;;;;;;;98.72;37.35;;;6.00;99.40;;;;;;5133714;27;20122;-80
2022/01/13 06:53:06;;;;;;;91.88;37.15;;;6.10;99.30;;;;;;5116585;27;20038;-78
2022/01/13 06:55:32;;;;;;;107.18;40.38;;;6.00;99.30;;;;;;5116545;27;20087;-81
2022/01/13 06:57:58;;;;;;;106.38;38.40;;;6.10;99.30;;;;;;5116168;27;20035;-80
2022/01/13 07:00:24;;;;;;;109.03;39.58;;;6.00;99.30;;;;;;5133584;27;20394;-82
2022/01/13 07:02:52;;;;;;;89.63;38.50;;;6.00;99.30;;;;;;5115898;27;20046;-82
2022/01/13 07:05:17;;;;;;;90.22;36.00;;;6.10;99.30;;;;;;5100137;27;20127;-82
2022/01/13 07:07:43;;;;;;;96.72;34.85;;;6.00;99.30;;;;;;5099317;27;20118;-82
2022/01/13 07:10:10;;;;;;;98.45;36.67;;;6.00;99.30;;;;;;5133524;27;20165;-83
2022/01/13 07:12:37;;;;;;;92.95;36.90;;;6.00;99.30;;;;;;5133072;27;20039;-81
2022/01/13 07:15:05;;;;;;;83.72;33.92;;;6.00;99.30;;;;;;5115820;27;20180;-82
2022/01/13 07:17:31;;;;;;;79.78;32.00;;;6.00;99.30;;;;;;5115232;27;20047;-82
2022/01/13 07:19:57;;;;;;;84.97;34.45;;;6.10;99.30;;;;;;5115554;27;20107;-82
2022/01/13 07:22:22;;;;;;;86.82;37.67;;;6.10;99.30;;;;;;5099130;28;20041;-82
2022/01/13 07:24:48;;;;;;;78.80;34.60;;;6.00;99.30;;;;;;5116184;28;20035;-82
2022/01/13 07:27:14;;;;;;;73.32;31.08;;;6.10;99.30;;;;;;5133330;27;20039;-81
2022/01/13 07:29:42;;;;;;;88.75;36.22;;;6.10;99.30;;;;;;5116224;28;20039;-82
2022/01/13 07:32:12;;;;;;;77.70;32.05;;;6.10;99.30;;;;;;5115574;28;20059;-82
2022/01/13 07:34:38;;;;;;;85.07;35.42;;;6.10;99.30;;;;;;5115891;28;20050;-81
2022/01/13 07:37:04;;;;;;;89.32;35.75;;;6.10;99.30;;;;;;5099089;28;20395;-82
2022/01/13 07:39:30;;;;;;;73.47;33.78;;;6.10;99.30;;;;;;5132979;28;20031;-81
2022/01/13 07:41:56;;;;;;;95.65;37.80;;;6.10;99.20;;;;;;5115503;28;20035;-81
2022/01/13 07:44:22;;;;;;;93.20;37.90;;;6.10;99.20;;;;;;5115638;28;20126;-82
2022/01/13 07:46:48;;;;;;;95.70;38.20;;;6.10;99.20;;;;;;5115631;28;20086;-80
2022/01/13 07:49:14;;;;;;;94.70;38.85;;;6.10;99.20;;;;;;5115251;28;20736;-82
2022/01/13 07:51:40;;;;;;;92.60;35.10;;;6.10;99.20;;;;;;5115614;28;20062;-81
2022/01/13 07:54:06;;;;;;;86.47;36.42;;;6.10;99.20;;;;;;5098609;28;20058;-82
2022/01/13 07:56:32;;;;;;;90.80;37.00;;;6.10;99.20;;;;;;5132938;28;20039;-82
2022/01/13 07:58:58;;;;;;;98.18;38.97;;;6.10;99.30;;;;;;5115701;28;20032;-82
2022/01/13 08:01:24;;;;;;;86.00;35.80;;;6.10;99.20;;;;;;5115778;28;20039;-83
2022/01/13 08:03:50;;;;;;;96.75;39.40;;;6.10;99.20;;;;;;5115830;28;20118;-81
2022/01/13 08:06:16;;;;;;;89.45;36.00;;;6.10;99.20;;;;;;5115430;28;20074;-81
2022/01/13 08:08:42;;;;;;;87.07;35.20;;;6.20;99.20;;;;;;5115528;28;20543;-81
2022/01/13 08:11:08;;;;;;;83.25;34.85;;;6.10;99.30;;;;;;5132650;28;20039;-82
2022/01/13 08:13:35;;;;;;;82.72;35.97;;;6.20;99.30;;;;;;5115398;28;20491;-81
2022/01/13 08:16:06;;;;;;;70.93;29.67;;;6.30;99.20;;;;;;5115332;28;20051;-82
2022/01/13 08:21:16;;;;;;;73.05;31.95;;;6.30;99.20;;;;;;5133101;28;20051;-82
2022/01/13 08:23:42;;;;;;;75.35;36.00;;;6.30;99.20;;;;;;5098147;28;20388;-82
2022/01/13 08:26:08;;;;;;;93.22;39.05;;;6.30;99.20;;;;;;5117840;27;20039;-82
2022/01/13 08:28:34;;;;;;;81.20;34.38;;;6.30;99.20;;;;;;5135424;27;20042;-81
2022/01/13 08:31:00;;;;;;;67.25;33.72;;;6.30;99.20;;;;;;5135915;27;20031;-82
2022/01/13 08:33:26;;;;;;;79.18;35.97;;;6.30;99.20;;;;;;5107338;27;20047;-81
2022/01/13 08:35:53;;;;;;;80.50;32.95;;;6.40;99.20;;;;;;5118669;27;20031;-82
2022/01/13 08:38:20;;;;;;;71.13;32.47;;;6.40;99.10;;;;;;5119003;27;20112;-81
2022/01/13 08:40:53;;;;;;;78.20;33.72;;;6.40;99.10;;;;;;5135789;27;20153;-82
2022/01/13 08:43:20;;;;;;;81.35;35.92;;;6.40;99.00;;;;;;5135904;27;20125;-82
2022/01/13 08:45:46;;;;;;;63.50;33.17;;;6.40;99.10;;;;;;5101993;27;20041;-82
2022/01/13 08:48:12;;;;;;;77.97;32.08;;;6.40;99.10;;;;;;5101583;27;20035;-82
2022/01/13 08:50:38;;;;;;;62.90;29.20;;;6.50;99.10;;;;;;5118737;27;20138;-82
2022/01/13 08:53:05;;;;;;;66.43;31.92;;;6.50;99.00;;;;;;5118387;27;20035;-82
2022/01/13 08:55:31;;;;;;;70.07;35.22;;;6.50;98.90;;;;;;5135408;27;20078;-82
2022/01/13 08:57:57;;;;;;;79.50;36.22;;;6.50;98.90;;;;;;5135328;27;20039;-81
2022/01/13 09:00:23;;;;;;;61.88;32.88;;;6.40;98.90;;;;;;5101354;27;20036;-81
2022/01/13 09:02:49;;;;;;;65.65;32.88;;;6.40;99.00;;;;;;5135268;27;20549;-81
2022/01/13 09:05:17;;;;;;;67.95;32.70;;;6.50;98.90;;;;;;5118414;27;20039;-81
2022/01/13 09:07:43;;;;;;;71.95;32.38;;;6.50;98.90;;;;;;5118345;27;20386;-82
2022/01/13 09:10:10;;;;;;;67.90;30.67;;;6.50;98.90;;;;;;5118011;27;20036;-81
2022/01/13 09:12:36;;;;;;;59.72;29.83;;;6.50;99.00;;;;;;5118170;27;20077;-81
2022/01/13 09:15:14;;;;;;;61.72;31.42;;;6.50;98.90;;;;;;5118269;27;20386;-82
2022/01/13 09:17:42;;;;;;;67.78;31.65;;;6.60;98.80;;;;;;5119631;27;20039;-82
2022/01/13 09:20:10;;;;;;;64.95;32.50;;;6.50;98.80;;;;;;5117911;27;20036;-82
2022/01/13 09:22:35;;;;;;;61.13;30.80;;;6.50;98.70;;;;;;5134874;27;20038;-80
2022/01/13 09:25:01;;;;;;;68.93;30.75;;;6.50;98.70;;;;;;5135194;27;20045;-82
2022/01/13 09:27:27;;;;;;;72.93;34.10;;;6.50;98.70;;;;;;5135155;27;20517;-82
2022/01/13 09:29:52;;;;;;;64.57;32.22;;;6.60;98.60;;;;;;5117783;27;20035;-82
2022/01/13 09:32:18;;;;;;;68.53;34.22;;;6.60;98.70;;;;;;5094785;27;20047;-82
2022/01/13 09:34:44;;;;;;;64.13;31.40;;;6.60;98.70;;;;;;5124049;27;20058;-81
2022/01/13 09:37:11;;;;;;;60.25;31.13;;;6.70;98.70;;;;;;5090067;27;20062;-83
2022/01/13 09:39:38;;;;;;;57.75;28.65;;;6.70;98.60;;;;;;5086473;27;20054;-81
2022/01/13 09:42:10;;;;;;;62.65;31.98;;;6.80;98.50;;;;;;5098512;27;20042;-82
2022/01/13 09:44:39;;;;;;;64.90;33.28;;;6.80;98.40;;;;;;5088222;27;20532;-82
2022/01/13 09:47:05;;;;;;;65.43;32.28;;;6.80;98.40;;;;;;5101349;27;20043;-82
2022/01/13 09:49:32;;;;;;;69.00;32.75;;;6.80;98.40;;;;;;5115615;27;20368;-82
2022/01/13 09:51:57;;;;;;;68.20;33.78;;;6.80;98.50;;;;;;5117241;27;20495;-82
2022/01/13 09:54:23;;;;;;;78.10;35.90;;;6.80;98.50;;;;;;5100432;27;20039;-81
2022/01/13 09:56:49;;;;;;;67.45;33.92;;;6.70;98.60;;;;;;5117041;27;20441;-82
2022/01/13 09:59:15;;;;;;;64.65;32.63;;;6.80;98.60;;;;;;5134201;27;20046;-82
2022/01/13 10:01:40;;;;;;;69.78;30.42;;;6.80;98.60;;;;;;5134187;27;20070;-82
2022/01/13 10:04:06;;;;;;;77.43;37.20;;;6.80;98.60;;;;;;5116918;27;20095;-81
2022/01/13 10:06:41;;;;;;;69.05;31.80;;;6.90;98.60;;;;;;5117116;27;20042;-82
2022/01/13 10:09:07;;;;;;;64.60;30.95;;;6.90;98.60;;;;;;5134455;27;20399;-81
2022/01/13 10:11:41;;;;;;;70.85;36.28;;;7.00;98.60;;;;;;5116997;27;20050;-82
2022/01/13 10:17:00;;;;;;;60.20;32.28;;;7.00;98.40;;;;;;5134033;27;20043;-82
2022/01/13 10:19:33;;;;;;;71.55;35.72;;;7.00;98.40;;;;;;5134209;27;20111;-81
2022/01/13 10:22:19;;;;;;;70.25;32.55;;;7.00;98.40;;;;;;5135198;27;20047;-81
2022/01/13 10:24:53;;;;;;;59.95;32.15;;;7.10;98.30;;;;;;5133950;27;20491;-82
2022/01/13 10:27:29;;;;;;;58.60;29.73;;;7.10;98.20;;;;;;5134247;27;20186;-81
2022/01/13 10:29:57;;;;;;;45.80;26.88;;;7.10;98.20;;;;;;5134822;27;20082;-81
2022/01/13 10:32:39;;;;;;;46.10;24.00;;;7.10;97.90;;;;;;5133864;27;20054;-81
2022/01/13 10:35:10;;;;;;;64.97;31.38;;;7.10;98.00;;;;;;5117463;27;20059;-82
2022/01/13 10:37:41;;;;;;;71.25;34.22;;;7.10;98.00;;;;;;5134783;27;20548;-81
2022/01/13 10:40:09;;;;;;;67.05;33.65;;;7.10;98.10;;;;;;5116884;27;20031;-81
2022/01/13 10:45:26;;;;;;;58.78;30.38;;;7.00;98.20;;;;;;5134135;27;20054;-81
2022/01/13 10:48:02;;;;;;;64.65;32.22;;;7.10;98.20;;;;;;5116846;27;20050;-81
2022/01/13 10:50:40;;;;;;;57.70;29.95;;;7.00;98.10;;;;;;5116859;27;20066;-82
2022/01/13 10:53:12;;;;;;;56.72;29.15;;;7.10;98.20;;;;;;5116921;27;20035;-82
2022/01/13 10:55:41;;;;;;;57.25;29.05;;;7.10;98.00;;;;;;5116685;27;20035;-82
2022/01/13 10:58:07;;;;;;;58.75;29.10;;;7.10;97.80;;;;;;5116538;27;20073;-81
2022/01/13 11:00:34;;;;;;;53.40;28.30;;;7.00;97.80;;;;;;5133661;27;20027;-81
2022/01/13 11:03:10;;;;;;;56.72;29.23;;;7.10;97.80;;;;;;5100236;27;20032;-82
2022/01/13 11:05:57;;;;;;;53.10;29.90;;;7.00;97.40;;;;;;5135110;27;20035;-81
2022/01/13 11:08:31;;;;;;;46.75;26.52;;;7.00;97.50;;;;;;5133067;27;20043;-82
2022/01/13 11:11:00;;;;;;;56.92;29.15;;;7.00;97.30;;;;;;5115919;27;20043;-81
2022/01/13 11:13:31;;;;;;;57.35;26.95;;;7.00;97.30;;;;;;5135082;27;20561;-82
2022/01/13 11:15:57;;;;;;;54.38;31.05;;;7.00;97.20;;;;;;5116968;27;20093;-81
2022/01/13 11:18:30;;;;;;;51.08;29.05;;;7.00;97.30;;;;;;5117505;27;20176;-83
2022/01/13 11:20:57;;;;;;;55.55;29.15;;;7.00;97.50;;;;;;5133567;27;20035;-82
2022/01/13 11:23:24;;;;;;;53.53;28.08;;;7.00;97.50;;;;;;5117653;27;20562;-82
2022/01/13 11:25:53;;;;;;;49.72;27.35;;;7.10;97.40;;;;;;5132927;27;20509;-81
2022/01/13 11:28:19;;;;;;;58.72;29.75;;;7.10;97.40;;;;;;5132776;27;20046;-83
2022/01/13 11:30:46;;;;;;;56.95;27.50;;;7.00;97.50;;;;;;5098582;28;20084;-81
2022/01/13 11:33:12;;;;;;;46.22;26.73;;;7.10;97.60;;;;;;5118468;27;20082;-81
2022/01/13 11:35:45;;;;;;;57.17;28.38;;;7.10;97.50;;;;;;5119112;27;20050;-81
2022/01/13 11:38:13;;;;;;;57.85;29.50;;;7.10;97.60;;;;;;5136105;27;20118;-81
2022/01/13 11:40:44;;;;;;;60.50;29.95;;;7.10;97.60;;;;;;5136015;27;20049;-82
2022/01/13 11:43:25;;;;;;;51.33;25.88;;;7.10;97.70;;;;;;5136043;27;20046;-81
2022/01/13 11:45:51;;;;;;;60.55;28.42;;;7.30;97.70;;;;;;5135959;27;20121;-81
2022/01/13 11:48:19;;;;;;;56.05;27.80;;;7.30;97.60;;;;;;5136008;27;20035;-81
2022/01/13 11:50:52;;;;;;;50.35;25.75;;;7.30;97.70;;;;;;5135956;27;20487;-81
2022/01/13 11:53:32;;;;;;;53.90;27.35;;;7.40;97.60;;;;;;5135856;27;20046;-81
2022/01/13 11:55:59;;;;;;;49.70;22.73;;;7.50;97.50;;;;;;5102061;27;20039;-81
2022/01/13 11:58:33;;;;;;;45.75;24.45;;;7.50;97.50;;;;;;5135896;27;20043;-81
2022/01/13 12:01:19;;;;;;;44.47;22.65;;;7.60;97.40;;;;;;5138971;27;20050;-81
2022/01/13 12:03:52;;;;;;;45.80;23.38;;;7.60;97.30;;;;;;5140021;27;20039;-81
2022/01/13 12:06:39;;;;;;;45.47;23.25;;;7.80;97.10;;;;;;5139893;27;20093;-81
2022/01/13 12:09:10;;;;;;;40.03;23.58;;;7.80;96.90;;;;;;5140164;27;20038;-81
2022/01/13 12:11:45;;;;;;;41.80;21.13;;;7.90;96.90;;;;;;5140337;27;20137;-81
2022/01/13 12:14:23;;;;;;;;;;;8.00;96.90;;;;;;5140399;27;20034;-81
2022/01/13 12:17:12;;;;;;;32.97;21.00;;;8.00;96.60;;;;;;5156953;27;19918;-81
2022/01/13 12:19:41;;;;;;;35.80;21.00;;;8.10;96.30;;;;;;5122634;27;20505;-81
2022/01/13 12:22:15;;;;;;;36.00;18.35;;;8.10;96.30;;;;;;5122438;27;20405;-80
2022/01/13 12:24:45;;;;;;;34.92;19.45;;;8.10;96.20;;;;;;5139473;27;20475;-80
2022/01/13 12:27:11;;;;;;;35.20;15.20;;;8.10;95.90;;;;;;5122380;27;20039;-80
2022/01/13 12:30:02;;;;;;;38.53;21.08;;;8.10;95.90;;;;;;5122333;27;20065;-82
2022/01/13 12:32:48;;;;;;;39.85;21.60;;;8.10;95.80;;;;;;5139404;27;20046;-80
2022/01/13 12:35:34;;;;;;;37.22;19.85;;;8.10;96.00;;;;;;5122099;27;20088;-81
2022/01/13 12:38:06;;;;;;;32.33;20.27;;;8.10;95.90;;;;;;5139210;27;20038;-81
2022/01/13 12:40:40;;;;;;;29.98;18.40;;;8.10;96.10;;;;;;5122438;27;20035;-81
2022/01/13 12:43:33;;;;;;;38.30;18.05;;;8.20;95.90;;;;;;5139412;27;20367;-81
2022/01/13 12:46:08;;;;;;;31.52;17.15;;;8.20;96.00;;;;;;5122095;27;20043;-80
2022/01/13 12:48:34;;;;;;;29.48;17.75;;;8.20;95.70;;;;;;5122009;27;20168;-81
2022/01/13 12:51:01;;;;;;;34.85;18.33;;;8.20;95.50;;;;;;5105155;27;20077;-81
2022/01/13 12:53:35;;;;;;;39.85;19.88;;;8.20;95.60;;;;;;5121916;27;20047;-82
2022/01/13 12:56:10;;;;;;;37.58;17.75;;;8.20;95.50;;;;;;5122048;27;20046;-81
2022/01/13 12:58:39;;;;;;;37.90;19.00;;;8.30;95.40;;;;;;5121852;27;20038;-81
2022/01/13 13:01:14;;;;;;;30.10;18.52;;;8.20;95.40;;;;;;5121741;27;20035;-81
2022/01/13 13:03:39;;;;;;;;;;;8.30;95.50;;;;;;5139475;27;20394;-81
2022/01/13 13:06:16;;;;;;;33.53;17.98;;;8.30;95.40;;;;;;5173353;27;19915;-81
2022/01/13 13:08:45;;;;;;;40.17;19.25;;;8.30;95.50;;;;;;5138753;27;20035;-81
2022/01/13 13:11:11;;;;;;;34.78;18.00;;;8.40;95.20;;;;;;5137726;27;20031;-81
2022/01/13 13:13:41;;;;;;;36.47;18.23;;;8.30;95.30;;;;;;5138552;27;20057;-81
2022/01/13 13:16:08;;;;;;;37.60;18.67;;;8.30;95.30;;;;;;5121419;27;20034;-81
2022/01/13 13:18:35;;;;;;;33.95;16.85;;;8.30;95.50;;;;;;5087569;27;20039;-81